Time;durP1;ratioP1;P1;durP2;ratioP2;P2;SDS_P1;SDS_P2;PMS_P1;PMS_P2;Temp;Humidity;BMP_temperature;BMP_pressure;BME280_temperature;BME280_humidity;BME280_pressure;Samples;Min_cycle;Max_cycle;Signal;HPM_P1;HPM_P2
2020/12/19 00:02:10;;;;;;;87.03;57.03;;;;;;;12.91;37.76;95473.47;5074836;28;20056;-42
2020/12/19 00:04:37;;;;;;;78.07;55.80;;;;;;;12.98;37.67;95478.41;5074304;28;20673;-51
2020/12/19 00:07:04;;;;;;;84.00;60.17;;;;;;;12.98;37.66;95475.78;5074585;28;20059;-43
2020/12/19 00:09:31;;;;;;;81.25;55.63;;;;;;;13.11;37.17;95477.00;5074439;28;20041;-42
2020/12/19 00:11:58;;;;;;;79.07;54.45;;;;;;;12.76;37.77;95476.22;5074472;28;20111;-42
2020/12/19 00:14:25;;;;;;;74.30;52.72;;;;;;;13.07;37.32;95462.88;5074265;28;20083;-43
2020/12/19 00:16:53;;;;;;;79.03;53.65;;;;;;;13.32;36.95;95481.06;5074450;28;20048;-43
2020/12/19 00:19:20;;;;;;;68.63;48.75;;;;;;;13.32;37.01;95481.06;5076873;28;20055;-43
2020/12/19 00:21:47;;;;;;;58.42;43.17;;;;;;;13.52;35.86;95485.34;5094591;28;20377;-44
2020/12/19 00:24:14;;;;;;;55.22;42.88;;;;;;;13.16;36.44;95485.63;5094343;28;20058;-43
2020/12/19 00:26:42;;;;;;;69.93;52.08;;;;;;;13.10;36.85;95480.69;5094370;28;20044;-41
2020/12/19 00:29:11;;;;;;;73.75;54.22;;;;;;;13.24;36.59;95492.16;5094450;28;20051;-43
2020/12/19 00:31:39;;;;;;;79.80;56.95;;;;;;;13.09;36.89;95492.25;5093796;28;20056;-42
2020/12/19 00:34:07;;;;;;;84.25;59.22;;;;;;;13.19;36.50;95490.34;5093738;28;20044;-43
2020/12/19 00:36:35;;;;;;;89.78;61.10;;;;;;;12.98;37.16;95489.69;5094297;28;20047;-44
2020/12/19 00:39:03;;;;;;;83.30;60.38;;;;;;;13.08;36.60;95491.47;5094115;28;20048;-44
2020/12/19 00:41:30;;;;;;;77.63;55.00;;;;;;;12.99;36.89;95495.72;5094159;28;20650;-43
2020/12/19 00:43:57;;;;;;;75.22;54.20;;;;;;;13.02;37.02;95497.03;5093503;28;20056;-42
2020/12/19 00:46:25;;;;;;;82.82;57.58;;;;;;;12.91;37.20;95494.47;5093806;28;20044;-43
2020/12/19 00:48:52;;;;;;;78.18;55.60;;;;;;;13.03;36.72;95490.72;5094173;28;20044;-44
2020/12/19 00:51:21;;;;;;;72.50;52.55;;;;;;;12.94;37.09;95501.00;5074442;28;20048;-42
2020/12/19 00:53:49;;;;;;;77.53;54.55;;;;;;;13.12;37.01;95494.31;5073796;28;20462;-43
2020/12/19 00:56:17;;;;;;;75.88;53.88;;;;;;;13.13;36.62;95493.25;5073580;28;20040;-44
2020/12/19 00:58:45;;;;;;;77.68;57.78;;;;;;;13.14;36.92;95492.22;5073731;28;20048;-43
2020/12/19 01:01:13;;;;;;;95.50;68.85;;;;;;;12.89;36.83;95490.53;5074185;28;20051;-43
2020/12/19 01:03:41;;;;;;;98.35;72.00;;;;;;;12.94;36.74;95490.50;5073766;28;20328;-41
2020/12/19 01:06:08;;;;;;;93.32;69.82;;;;;;;12.94;36.76;95480.78;5073440;28;20052;-42
2020/12/19 01:08:35;;;;;;;89.22;67.20;;;;;;;13.00;36.40;95480.75;5073843;28;20063;-43
2020/12/19 01:11:02;;;;;;;92.85;69.55;;;;;;;12.81;37.02;95484.03;5073578;28;20059;-44
2020/12/19 01:13:29;;;;;;;92.60;67.82;;;;;;;13.00;36.73;95471.03;5073445;28;20049;-43
2020/12/19 01:15:57;;;;;;;95.85;71.35;;;;;;;12.90;36.95;95474.53;5073630;28;20340;-42
2020/12/19 01:18:24;;;;;;;94.70;70.53;;;;;;;12.82;36.60;95480.38;5073870;28;20052;-45
2020/12/19 01:20:51;;;;;;;93.78;70.18;;;;;;;12.80;36.82;95466.72;5088762;28;20390;-43
2020/12/19 01:23:18;;;;;;;98.88;72.47;;;;;;;12.81;36.86;95468.31;5093723;28;20051;-44
2020/12/19 01:25:45;;;;;;;96.65;72.20;;;;;;;13.20;36.19;95464.88;5093511;28;20056;-43
2020/12/19 01:28:12;;;;;;;93.20;69.72;;;;;;;13.12;36.25;95462.81;5093748;28;20079;-43
2020/12/19 01:30:39;;;;;;;96.00;70.18;;;;;;;13.05;36.44;95457.09;5093763;28;20059;-43
2020/12/19 01:33:06;;;;;;;91.75;70.18;;;;;;;13.37;35.68;95457.38;5093677;28;20443;-43
2020/12/19 01:35:33;;;;;;;95.20;70.35;;;;;;;13.12;36.37;95468.06;5093352;28;20362;-43
2020/12/19 01:38:00;;;;;;;88.55;62.85;;;;;;;12.82;36.49;95463.84;5093797;28;20052;-43
2020/12/19 01:40:27;;;;;;;86.10;60.95;;;;;;;13.10;35.86;95459.69;5093694;28;20059;-50
2020/12/19 01:42:54;;;;;;;76.47;56.08;;;;;;;13.18;36.00;95467.00;5093431;28;20051;-43
2020/12/19 01:45:21;;;;;;;77.57;57.60;;;;;;;13.28;35.67;95461.69;5093552;28;20048;-43
2020/12/19 01:47:48;;;;;;;81.78;58.58;;;;;;;13.45;35.28;95463.88;5093565;28;20056;-46
2020/12/19 01:50:16;;;;;;;86.50;61.78;;;;;;;13.35;35.54;95480.50;5065093;28;20048;-43
2020/12/19 01:52:43;;;;;;;82.10;60.83;;;;;;;13.48;35.43;95465.94;5055618;28;20063;-42
2020/12/19 01:55:10;;;;;;;82.18;59.92;;;;;;;13.19;35.59;95458.06;5072998;28;20063;-42
2020/12/19 01:57:41;;;;;;;87.05;63.72;;;;;;;13.25;35.17;95472.69;5075499;28;20040;-43
2020/12/19 02:00:08;;;;;;;82.55;60.70;;;;;;;13.16;35.18;95464.63;5077171;28;20052;-41
2020/12/19 02:02:35;;;;;;;81.70;59.63;;;;;;;13.14;35.15;95466.72;5076895;28;20051;-47
2020/12/19 02:05:02;;;;;;;87.00;63.42;;;;;;;13.08;35.36;95461.81;5076669;28;20055;-42
2020/12/19 02:07:30;;;;;;;85.35;64.10;;;;;;;13.00;35.38;95467.63;5076852;28;20064;-42
2020/12/19 02:09:59;;;;;;;85.72;62.88;;;;;;;13.02;35.24;95468.16;5076407;28;20048;-43
2020/12/19 02:12:26;;;;;;;81.82;61.28;;;;;;;12.90;35.27;95468.50;5076797;28;20513;-43
2020/12/19 02:14:57;;;;;;;78.10;58.50;;;;;;;12.80;35.08;95464.09;5082007;28;20056;-43
2020/12/19 02:17:24;;;;;;;80.63;58.97;;;;;;;12.83;35.23;95460.16;5096967;28;20431;-43
2020/12/19 02:19:51;;;;;;;77.10;57.78;;;;;;;12.77;35.56;95462.03;5089506;28;20375;-42
2020/12/19 02:22:18;;;;;;;76.82;55.72;;;;;;;12.76;35.19;95449.97;5076602;28;20060;-48
2020/12/19 02:24:45;;;;;;;77.53;56.38;;;;;;;12.85;35.42;95458.03;5076120;28;20063;-42
2020/12/19 02:27:12;;;;;;;74.68;54.28;;;;;;;12.72;36.09;95453.38;5076349;28;20049;-42
2020/12/19 02:29:39;;;;;;;71.65;53.92;;;;;;;12.83;35.59;95455.69;5076428;28;20056;-42
2020/12/19 02:32:07;;;;;;;73.30;53.85;;;;;;;12.93;35.39;95455.59;5076501;28;20379;-42
2020/12/19 02:34:34;;;;;;;74.65;55.17;;;;;;;12.83;35.87;95450.44;5075886;28;20056;-42
2020/12/19 02:37:01;;;;;;;79.05;56.05;;;;;;;12.98;35.72;95460.81;5076311;28;20040;-50
2020/12/19 02:39:28;;;;;;;73.10;54.20;;;;;;;12.90;35.84;95458.78;5076436;28;20079;-42
2020/12/19 02:41:55;;;;;;;73.57;53.67;;;;;;;12.88;35.68;95452.25;5076354;28;20048;-43
2020/12/19 02:44:23;;;;;;;72.72;54.05;;;;;;;12.84;36.13;95457.25;5075968;28;20052;-42
2020/12/19 02:46:50;;;;;;;71.40;52.17;;;;;;;13.06;35.71;95458.69;5075776;28;20052;-42
2020/12/19 02:49:17;;;;;;;71.32;51.97;;;;;;;13.09;35.56;95453.66;5078304;28;20048;-49
2020/12/19 02:51:44;;;;;;;67.30;51.05;;;;;;;12.94;35.69;95446.66;5096324;28;20051;-42
2020/12/19 02:54:11;;;;;;;69.95;51.30;;;;;;;13.15;35.94;95451.75;5096267;28;20051;-46
2020/12/19 02:56:38;;;;;;;70.70;52.08;;;;;;;13.12;35.74;95447.06;5095945;28;20044;-51
2020/12/19 02:59:05;;;;;;;71.03;52.90;;;;;;;13.15;35.57;95446.50;5096052;28;20068;-56
2020/12/19 03:01:33;;;;;;;74.43;53.00;;;;;;;13.16;35.51;95450.69;5096208;28;20056;-53
2020/12/19 03:04:00;;;;;;;70.40;52.95;;;;;;;13.16;35.71;95446.25;5095997;28;20056;-42
2020/12/19 03:06:28;;;;;;;71.95;53.72;;;;;;;13.10;35.69;95449.97;5095789;28;20450;-43
2020/12/19 03:08:55;;;;;;;70.35;52.17;;;;;;;13.19;35.75;95445.72;5095119;28;20062;-43
2020/12/19 03:11:22;;;;;;;71.70;50.88;;;;;;;13.41;35.51;95450.50;5095884;28;20052;-43
2020/12/19 03:13:50;;;;;;;69.78;49.72;;;;;;;13.40;35.61;95458.66;5095680;28;20059;-43
2020/12/19 03:16:17;;;;;;;68.18;49.88;;;;;;;13.47;35.14;95446.75;5081612;28;20482;-44
2020/12/19 03:18:44;;;;;;;66.50;46.70;;;;;;;13.49;35.09;95457.00;5075497;28;20052;-44
2020/12/19 03:21:12;;;;;;;66.10;47.78;;;;;;;13.61;35.37;95454.00;5093854;28;20051;-44
2020/12/19 03:23:39;;;;;;;63.70;47.38;;;;;;;14.18;34.13;95447.84;5095474;28;20055;-43
2020/12/19 03:26:06;;;;;;;62.42;45.83;;;;;;;14.27;33.50;95447.97;5095268;28;20059;-44
2020/12/19 03:28:33;;;;;;;64.80;46.22;;;;;;;14.24;33.47;95451.19;5095661;28;20075;-43
2020/12/19 03:31:00;;;;;;;65.55;48.80;;;;;;;13.88;34.17;95448.97;5095574;28;20051;-44
2020/12/19 03:33:28;;;;;;;66.28;47.17;;;;;;;13.91;34.29;95453.69;5095480;28;20058;-44
2020/12/19 03:35:55;;;;;;;62.40;44.42;;;;;;;13.61;34.86;95459.25;5084784;28;20055;-43
2020/12/19 03:38:22;;;;;;;62.45;43.60;;;;;;;13.52;35.42;95457.22;5075086;28;20047;-44
2020/12/19 03:40:49;;;;;;;60.80;44.17;;;;;;;13.73;35.13;95451.75;5075043;28;20490;-44
2020/12/19 03:43:16;;;;;;;62.15;45.75;;;;;;;13.67;34.90;95458.94;5074794;28;20056;-43
2020/12/19 03:45:43;;;;;;;65.55;48.70;;;;;;;13.47;35.37;95454.66;5074707;28;20048;-43
2020/12/19 03:48:10;;;;;;;66.72;51.53;;;;;;;13.42;35.67;95456.53;5074848;28;20048;-43
2020/12/19 03:50:37;;;;;;;66.28;48.78;;;;;;;13.41;35.61;95455.75;5092173;28;20044;-42
2020/12/19 03:53:04;;;;;;;60.58;43.55;;;;;;;13.51;35.52;95455.66;5095104;28;20364;-43
2020/12/19 03:55:31;;;;;;;65.43;44.63;;;;;;;13.68;35.19;95465.75;5094897;28;20371;-43
2020/12/19 03:57:58;;;;;;;59.95;42.33;;;;;;;13.70;35.83;95460.22;5094974;28;20048;-43
2020/12/19 04:00:25;;;;;;;61.33;42.70;;;;;;;13.77;35.06;95464.06;5094986;28;20052;-43
2020/12/19 04:02:53;;;;;;;65.13;44.53;;;;;;;14.00;34.83;95459.88;5094827;28;20054;-43
2020/12/19 04:05:20;;;;;;;62.72;42.55;;;;;;;13.81;35.31;95459.06;5090428;28;20063;-43
2020/12/19 04:07:47;;;;;;;56.90;40.75;;;;;;;13.88;35.55;95464.75;5074643;28;20435;-42
2020/12/19 04:10:14;;;;;;;55.00;40.85;;;;;;;13.72;35.59;95455.47;5057033;28;20739;-44
2020/12/19 04:12:41;;;;;;;57.88;41.47;;;;;;;13.86;35.50;95459.00;5074314;28;20439;-44
2020/12/19 04:15:10;;;;;;;59.35;41.15;;;;;;;13.67;35.88;95469.44;5074234;28;20067;-43
2020/12/19 04:17:37;;;;;;;62.10;42.63;;;;;;;13.58;35.69;95471.91;5074689;28;20052;-43
2020/12/19 04:20:06;;;;;;;66.15;43.45;;;;;;;13.60;35.99;95468.22;5082680;28;20054;-44
2020/12/19 04:22:33;;;;;;;58.72;40.28;;;;;;;13.58;36.15;95471.91;5094575;28;20051;-43
2020/12/19 04:25:01;;;;;;;58.25;39.17;;;;;;;13.64;35.90;95470.00;5094402;28;20063;-44
2020/12/19 04:27:28;;;;;;;56.28;39.00;;;;;;;13.51;36.16;95466.16;5094404;28;20047;-43
2020/12/19 04:29:55;;;;;;;57.08;37.53;;;;;;;13.15;36.67;95472.78;5094525;28;20055;-43
2020/12/19 04:32:22;;;;;;;56.10;38.35;;;;;;;13.32;36.62;95473.19;5094224;28;20450;-43
2020/12/19 04:34:49;;;;;;;57.13;38.53;;;;;;;13.20;36.68;95467.50;5094082;28;20340;-43
2020/12/19 04:37:16;;;;;;;56.00;38.50;;;;;;;13.18;36.67;95472.25;5094083;28;20451;-43
2020/12/19 04:39:43;;;;;;;54.05;37.65;;;;;;;13.24;36.68;95468.50;5094166;28;20058;-43
2020/12/19 04:42:11;;;;;;;54.15;37.55;;;;;;;13.42;36.19;95467.84;5093995;28;20047;-44
2020/12/19 04:44:38;;;;;;;55.83;39.22;;;;;;;13.31;36.45;95471.63;5093878;28;20051;-43
2020/12/19 04:47:06;;;;;;;56.90;37.97;;;;;;;13.37;36.53;95470.50;5093713;28;20052;-43
2020/12/19 04:49:33;;;;;;;54.10;36.38;;;;;;;13.33;36.44;95472.13;5089008;28;20454;-44
2020/12/19 04:52:02;;;;;;;56.13;35.90;;;;;;;13.30;36.72;95471.91;5073827;28;20083;-43
2020/12/19 04:54:29;;;;;;;52.42;34.55;;;;;;;13.04;36.79;95468.66;5073397;28;20049;-43
2020/12/19 04:56:56;;;;;;;52.33;35.72;;;;;;;13.18;36.84;95467.00;5073343;28;20040;-43
2020/12/19 04:59:23;;;;;;;51.17;33.95;;;;;;;13.07;36.96;95481.25;5056380;28;20056;-52
2020/12/19 05:01:51;;;;;;;50.25;34.10;;;;;;;13.21;36.77;95477.72;5073769;28;20386;-42
2020/12/19 05:04:18;;;;;;;51.95;34.33;;;;;;;13.16;36.85;95484.84;5073704;28;20063;-43
2020/12/19 05:06:46;;;;;;;51.45;35.05;;;;;;;13.40;36.47;95475.22;5073155;28;20052;-43
2020/12/19 05:09:13;;;;;;;58.47;35.78;;;;;;;13.23;37.03;95486.13;5073675;28;20059;-42
2020/12/19 05:11:40;;;;;;;53.08;34.95;;;;;;;13.44;36.51;95481.47;5073598;28;20048;-43
2020/12/19 05:14:08;;;;;;;51.97;34.30;;;;;;;13.25;36.88;95494.50;5072752;28;20111;-43
2020/12/19 05:16:35;;;;;;;54.40;34.65;;;;;;;13.17;36.87;95487.22;5073155;28;20483;-43
2020/12/19 05:19:09;;;;;;;50.78;34.50;;;;;;;13.08;36.94;95480.19;5073611;28;20056;-43
2020/12/19 05:21:47;;;;;;;46.47;32.33;;;;;;;12.89;36.88;95485.28;5093849;28;20051;-43
2020/12/19 05:24:15;;;;;;;49.22;33.10;;;;;;;13.33;36.50;95489.72;5093532;28;20378;-42
2020/12/19 05:26:43;;;;;;;49.20;34.33;;;;;;;13.41;36.10;95487.28;5093217;28;20374;-42
2020/12/19 05:29:10;;;;;;;49.85;33.83;;;;;;;13.16;36.42;95487.47;5093814;28;20060;-43
2020/12/19 05:31:38;;;;;;;54.75;35.25;;;;;;;13.42;36.10;95494.09;5096375;28;20455;-43
2020/12/19 05:34:05;;;;;;;52.40;35.42;;;;;;;13.36;36.39;95492.59;5097708;28;20064;-43
2020/12/19 05:36:39;;;;;;;58.95;36.88;;;;;;;13.00;37.32;95486.00;5097663;28;20127;-43
2020/12/19 05:39:07;;;;;;;51.53;34.90;;;;;;;13.51;36.06;95486.41;5097708;28;20402;-44
2020/12/19 05:41:38;;;;;;;51.58;34.47;;;;;;;13.67;35.46;95485.19;5097835;28;20045;-43
2020/12/19 05:44:06;;;;;;;52.28;35.67;;;;;;;13.41;35.92;95487.28;5097556;28;20054;-42
2020/12/19 05:46:38;;;;;;;49.88;35.10;;;;;;;13.49;36.02;95494.56;5097202;28;20051;-41
2020/12/19 05:49:08;;;;;;;52.17;35.40;;;;;;;13.37;36.13;95490.75;5096503;28;20364;-43
2020/12/19 05:51:37;;;;;;;55.78;36.60;;;;;;;14.68;34.27;95488.53;5077178;28;20456;-43
2020/12/19 05:54:12;;;;;;;56.08;36.97;;;;;;;14.24;34.40;95498.53;5076467;28;20036;-43
2020/12/19 05:56:45;;;;;;;57.13;38.10;;;;;;;13.99;35.16;95500.38;5076232;28;20052;-43
2020/12/19 05:59:14;;;;;;;56.28;38.30;;;;;;;13.39;36.55;95499.91;5076884;28;20063;-43
2020/12/19 06:01:43;;;;;;;54.00;36.30;;;;;;;13.55;36.30;95503.97;5077066;28;20048;-43
2020/12/19 06:04:11;;;;;;;59.85;39.70;;;;;;;13.38;36.42;95508.84;5076974;28;20044;-43
2020/12/19 06:06:40;;;;;;;67.78;40.28;;;;;;;13.39;36.67;95509.63;5059511;28;20049;-44
2020/12/19 06:09:09;;;;;;;58.95;39.65;;;;;;;13.09;37.08;95514.03;5076660;28;20447;-44
2020/12/19 06:12:08;;;;;;;59.97;39.58;;;;;;;13.49;36.39;95514.78;5076904;28;20459;-41
2020/12/19 06:14:39;;;;;;;64.43;40.65;;;;;;;13.52;36.15;95515.00;5059128;28;20051;-44
2020/12/19 06:17:15;;;;;;;59.55;39.65;;;;;;;13.71;37.31;95516.97;5076608;28;20501;-43
2020/12/19 06:19:43;;;;;;;65.13;41.55;;;;;;;13.78;38.28;95517.41;5082363;28;20055;-42
2020/12/19 06:22:11;;;;;;;63.70;40.55;;;;;;;14.03;38.78;95514.53;5078773;28;20062;-43
2020/12/19 06:24:45;;;;;;;63.20;41.67;;;;;;;13.98;37.58;95521.69;5079116;28;20048;-44
2020/12/19 06:27:18;;;;;;;70.22;43.88;;;;;;;13.90;37.20;95517.81;5095920;28;20059;-43
2020/12/19 06:29:46;;;;;;;72.05;45.88;;;;;;;13.70;36.19;95521.44;5079168;28;20429;-42
2020/12/19 06:32:19;;;;;;;73.03;46.67;;;;;;;13.65;36.06;95523.34;5093033;28;20370;-43
2020/12/19 06:35:06;;;;;;;69.75;46.67;;;;;;;13.68;36.25;95533.28;5076162;28;20048;-42
2020/12/19 06:37:36;;;;;;;77.20;47.60;;;;;;;13.67;36.19;95531.72;5076532;28;20049;-43
2020/12/19 06:40:18;;;;;;;75.60;47.88;;;;;;;13.63;36.16;95528.09;5076297;28;20056;-45
2020/12/19 06:42:47;;;;;;;77.63;48.17;;;;;;;13.37;36.68;95528.28;5075326;28;20367;-45
2020/12/19 06:45:28;;;;;;;73.30;44.92;;;;;;;13.48;36.33;95529.75;5076124;28;20447;-43
2020/12/19 06:47:56;;;;;;;70.13;44.80;;;;;;;13.69;36.22;95524.34;5076116;28;20052;-42
2020/12/19 06:50:24;;;;;;;70.47;45.65;;;;;;;13.48;36.59;95528.97;5087538;28;20358;-43
2020/12/19 06:52:59;;;;;;;70.32;45.00;;;;;;;13.59;36.36;95527.84;5096290;28;20059;-43
2020/12/19 06:55:28;;;;;;;69.75;45.50;;;;;;;13.65;36.07;95528.59;5096103;28;20052;-43
2020/12/19 06:57:56;;;;;;;71.20;47.33;;;;;;;13.65;36.31;95536.47;5091926;28;20063;-42
2020/12/19 07:00:25;;;;;;;84.13;51.78;;;;;;;13.56;36.47;95537.06;5086009;28;20471;-42
2020/12/19 07:02:54;;;;;;;83.82;52.67;;;;;;;13.62;36.22;95544.91;5084429;28;20045;-42
2020/12/19 07:05:26;;;;;;;83.15;50.90;;;;;;;13.68;36.39;95541.94;5084466;28;20086;-41
2020/12/19 07:07:54;;;;;;;75.45;46.90;;;;;;;13.77;36.07;95531.63;5086658;28;20052;-42
2020/12/19 07:10:34;;;;;;;85.78;52.65;;;;;;;13.77;36.06;95542.13;5085417;28;20048;-44
2020/12/19 07:13:02;;;;;;;85.20;51.60;;;;;;;13.75;36.06;95539.00;5085244;28;20060;-41
2020/12/19 07:15:48;;;;;;;74.07;45.22;;;;;;;13.39;36.73;95547.19;5087108;28;20047;-43
2020/12/19 07:18:33;;;;;;;66.75;44.22;;;;;;;13.57;36.23;95549.16;5096038;28;20051;-43
2020/12/19 07:21:02;;;;;;;66.78;43.53;;;;;;;13.76;36.14;95543.97;5078782;28;20364;-44
2020/12/19 07:23:31;;;;;;;67.60;43.03;;;;;;;13.45;36.70;95546.09;5074187;28;20051;-45
2020/12/19 07:25:58;;;;;;;65.75;44.50;;;;;;;13.44;37.05;95548.97;5077975;28;20044;-40
2020/12/19 07:28:25;;;;;;;71.05;45.00;;;;;;;13.62;36.55;95550.16;5095183;28;20052;-41
2020/12/19 07:30:53;;;;;;;58.63;39.03;;;;;;;13.64;36.33;95542.78;5078684;28;20371;-42
2020/12/19 07:33:20;;;;;;;56.50;34.97;;;;;;;13.47;36.30;95543.19;5091755;28;20055;-46
2020/12/19 07:35:48;;;;;;;56.72;35.50;;;;;;;13.26;36.64;95545.16;5095294;28;20051;-64
2020/12/19 07:38:15;;;;;;;60.53;35.83;;;;;;;13.55;36.04;95551.28;5075232;28;20053;-49
2020/12/19 07:40:42;;;;;;;55.22;35.95;;;;;;;13.56;36.12;95542.31;5075075;28;20363;-54
2020/12/19 07:43:10;;;;;;;55.53;35.20;;;;;;;13.52;36.23;95541.28;5075226;28;20110;-49
2020/12/19 07:45:39;;;;;;;54.83;35.03;;;;;;;13.13;36.81;95545.78;5074779;28;20041;-52
2020/12/19 07:48:08;;;;;;;58.00;35.30;;;;;;;13.39;36.72;95547.19;5075003;28;20056;-50
2020/12/19 07:50:35;;;;;;;53.30;33.50;;;;;;;13.57;36.20;95554.41;5087266;28;20052;-50
2020/12/19 07:53:05;;;;;;;53.45;33.63;;;;;;;13.35;36.26;95548.81;5076844;28;20040;-52
2020/12/19 07:55:33;;;;;;;54.40;32.97;;;;;;;13.35;36.44;95540.91;5057324;28;20052;-51
2020/12/19 07:58:02;;;;;;;53.75;34.55;;;;;;;13.25;36.82;95544.38;5073850;28;20060;-54
2020/12/19 08:00:30;;;;;;;51.22;32.83;;;;;;;13.20;36.65;95543.66;5074863;28;20443;-56
2020/12/19 08:02:57;;;;;;;52.00;33.75;;;;;;;13.24;36.72;95544.66;5074205;28;20044;-54
2020/12/19 08:05:24;;;;;;;53.33;34.13;;;;;;;13.23;36.85;95543.88;5074668;28;20545;-51
2020/12/19 08:07:55;;;;;;;52.72;34.42;;;;;;;13.08;37.28;95546.59;5074533;28;20057;-50
2020/12/19 08:10:22;;;;;;;55.88;36.25;;;;;;;13.20;36.80;95548.91;5073726;28;20060;-50
2020/12/19 08:12:49;;;;;;;60.08;37.30;;;;;;;13.33;37.56;95545.66;5074164;28;20049;-52
2020/12/19 08:15:17;;;;;;;60.40;37.13;;;;;;;13.36;37.66;95542.50;5074563;28;20056;-50
2020/12/19 08:17:53;;;;;;;64.55;37.03;;;;;;;13.32;37.75;95548.56;5075109;28;20046;-42
2020/12/19 08:20:29;;;;;;;63.30;39.72;;;;;;;13.41;37.06;95550.31;5063773;28;20052;-45
2020/12/19 08:22:59;;;;;;;56.80;37.15;;;;;;;13.57;37.66;95554.41;5076493;28;20059;-43
2020/12/19 08:25:26;;;;;;;65.57;39.92;;;;;;;13.32;37.04;95557.22;5083204;28;20454;-42
2020/12/19 08:27:53;;;;;;;73.90;45.15;;;;;;;13.73;37.36;95564.78;5094461;28;20059;-47
2020/12/19 08:30:29;;;;;;;63.72;38.28;;;;;;;13.68;37.23;95559.56;5079140;28;20052;-46
2020/12/19 08:33:03;;;;;;;61.67;38.13;;;;;;;13.65;36.87;95566.16;5077014;28;20366;-42
2020/12/19 08:35:41;;;;;;;63.55;39.40;;;;;;;13.48;37.56;95563.13;5089422;28;20051;-49
2020/12/19 08:38:26;;;;;;;58.25;36.63;;;;;;;13.50;36.62;95553.91;5085081;28;20465;-44
2020/12/19 08:41:02;;;;;;;59.42;37.40;;;;;;;13.46;36.86;95558.16;5092803;28;20058;-44
2020/12/19 08:43:34;;;;;;;60.17;36.30;;;;;;;13.47;36.78;95559.72;5082803;28;20048;-43
2020/12/19 08:46:09;;;;;;;55.40;35.50;;;;;;;13.66;37.21;95562.47;5079525;28;20046;-46
2020/12/19 08:48:37;;;;;;;54.60;35.53;;;;;;;13.18;37.55;95551.00;5073760;28;20044;-44
2020/12/19 08:51:14;;;;;;;57.63;37.20;;;;;;;13.18;37.29;95553.63;5074046;28;20059;-44
2020/12/19 08:53:42;;;;;;;55.13;35.72;;;;;;;13.48;36.84;95556.03;5073760;28;20052;-45
2020/12/19 08:56:17;;;;;;;56.38;37.53;;;;;;;13.68;36.86;95549.84;5073547;28;20059;-43
2020/12/19 08:58:54;;;;;;;59.78;36.20;;;;;;;13.51;37.77;95544.19;5073952;28;20049;-44
2020/12/19 09:01:22;;;;;;;60.83;37.85;;;;;;;12.59;39.07;95546.59;5073504;28;20348;-58
2020/12/19 09:03:50;;;;;;;60.95;38.60;;;;;;;12.23;39.83;95532.84;5082982;28;20083;-47
2020/12/19 09:06:17;;;;;;;65.18;38.50;;;;;;;12.16;39.90;95527.09;5089498;28;20060;-42
2020/12/19 09:08:46;;;;;;;64.53;37.80;;;;;;;12.42;40.55;95533.03;5079978;28;20432;-41
2020/12/19 09:11:31;;;;;;;67.88;42.13;;;;;;;12.28;39.94;95520.53;5093945;28;20052;-44
2020/12/19 09:14:11;;;;;;;64.45;39.60;;;;;;;12.45;40.10;95522.00;5078483;28;20045;-43
2020/12/19 09:16:53;;;;;;;66.72;39.97;;;;;;;12.46;39.26;95518.31;5073401;28;20048;-43
2020/12/19 09:19:20;;;;;;;68.70;42.35;;;;;;;12.33;40.27;95514.47;5088259;28;20044;-47
2020/12/19 09:22:03;;;;;;;75.45;42.90;;;;;;;10.58;43.84;95521.09;5093833;28;20052;-48
2020/12/19 09:24:30;;;;;;;80.38;44.47;;;;;;;11.79;41.65;95509.13;5082556;28;20051;-44
2020/12/19 09:26:57;;;;;;;83.03;48.08;;;;;;;11.85;41.16;95513.31;5093685;28;20051;-46
2020/12/19 09:29:24;;;;;;;83.38;46.88;;;;;;;12.20;41.49;95504.53;5086801;28;20052;-43
2020/12/19 09:31:51;;;;;;;84.45;49.00;;;;;;;12.40;40.00;95508.91;5073230;28;20056;-44
2020/12/19 09:34:18;;;;;;;86.45;50.22;;;;;;;12.47;40.17;95506.78;5073340;28;20052;-44
2020/12/19 09:36:45;;;;;;;84.80;47.38;;;;;;;12.52;40.27;95501.53;5073473;28;20056;-44
2020/12/19 09:39:12;;;;;;;84.55;46.25;;;;;;;12.22;41.21;95497.97;5073662;28;20049;-43
2020/12/19 09:41:41;;;;;;;84.50;47.50;;;;;;;12.13;41.40;95498.81;5073524;28;20044;-44
2020/12/19 09:44:08;;;;;;;84.75;47.53;;;;;;;12.37;40.38;95506.84;5073033;28;20053;-45
2020/12/19 09:46:35;;;;;;;87.30;50.53;;;;;;;12.47;40.51;95498.91;5072862;28;20431;-45
2020/12/19 09:49:02;;;;;;;87.05;50.75;;;;;;;12.31;40.96;95498.22;5073135;28;20052;-43
2020/12/19 09:51:32;;;;;;;94.05;52.42;;;;;;;12.19;40.33;95498.50;5073392;28;20051;-47
2020/12/19 09:54:00;;;;;;;95.43;52.70;;;;;;;12.16;41.34;95491.19;5087207;28;20443;-41
2020/12/19 09:56:28;;;;;;;96.32;54.60;;;;;;;12.18;40.75;95486.47;5084877;28;20640;-43
2020/12/19 09:58:55;;;;;;;113.57;62.28;;;;;;;13.10;38.25;95496.44;5093271;28;20056;-45
2020/12/19 10:01:22;;;;;;;108.05;59.55;;;;;;;13.33;38.38;95502.88;5093619;28;20052;-47
2020/12/19 10:03:49;;;;;;;114.30;65.25;;;;;;;13.22;38.19;95494.25;5093103;28;20044;-46
2020/12/19 10:06:16;;;;;;;112.20;64.07;;;;;;;13.02;38.38;95495.19;5087821;28;20370;-45
2020/12/19 10:08:43;;;;;;;112.97;64.82;;;;;;;13.01;38.96;95482.31;5093429;28;20083;-49
2020/12/19 10:11:10;;;;;;;125.90;68.18;;;;;;;13.37;38.38;95486.28;5093433;28;20059;-41
2020/12/19 10:13:37;;;;;;;105.28;61.60;;;;;;;13.02;39.29;95492.56;5093174;28;20051;-49
2020/12/19 10:16:05;;;;;;;110.28;61.72;;;;;;;13.20;38.31;95470.13;5093105;28;20040;-67
2020/12/19 10:18:32;;;;;;;121.47;64.10;;;;;;;13.31;38.63;95474.25;5077864;28;20056;-48
2020/12/19 10:20:59;;;;;;;115.25;66.35;;;;;;;13.53;37.49;95473.75;5096953;28;20059;-44
2020/12/19 10:23:29;;;;;;;117.57;65.55;;;;;;;14.34;36.91;95472.13;5068160;28;20055;-43
2020/12/19 10:25:56;;;;;;;117.00;66.82;;;;;;;14.36;36.74;95475.25;5076349;28;20048;-44
2020/12/19 10:28:23;;;;;;;120.63;66.57;;;;;;;14.74;36.29;95466.31;5076587;28;20059;-45
2020/12/19 10:30:50;;;;;;;118.15;65.72;;;;;;;14.63;36.05;95470.16;5081965;28;20055;-45
2020/12/19 10:33:17;;;;;;;118.40;68.60;;;;;;;14.85;35.73;95464.34;5096856;28;20054;-49
2020/12/19 10:35:45;;;;;;;112.25;66.25;;;;;;;14.85;35.51;95456.44;5096821;28;20055;-52
2020/12/19 10:38:13;;;;;;;118.57;68.95;;;;;;;14.73;35.83;95459.50;5095813;28;20472;-43
2020/12/19 10:40:40;;;;;;;119.80;67.50;;;;;;;14.87;35.45;95458.78;5096682;28;20052;-43
2020/12/19 10:43:07;;;;;;;119.32;67.75;;;;;;;14.96;35.22;95457.06;5096491;28;20043;-43
2020/12/19 10:45:34;;;;;;;118.68;67.15;;;;;;;14.82;35.33;95452.50;5096260;28;20051;-43
2020/12/19 10:48:01;;;;;;;119.40;68.10;;;;;;;14.67;35.62;95444.06;5096480;28;20450;-44
2020/12/19 10:50:28;;;;;;;128.63;71.00;;;;;;;14.42;36.65;95445.16;5096459;28;20059;-50
2020/12/19 10:52:55;;;;;;;117.85;66.35;;;;;;;14.35;36.75;95455.25;5089620;28;20463;-50
2020/12/19 10:55:22;;;;;;;118.43;67.35;;;;;;;14.08;37.56;95447.97;5095304;28;20446;-48
2020/12/19 10:57:50;;;;;;;113.53;66.72;;;;;;;14.02;37.46;95439.34;5096176;28;20095;-48
2020/12/19 11:00:18;;;;;;;116.05;64.80;;;;;;;13.83;37.72;95443.78;5090547;28;20052;-52
2020/12/19 11:02:45;;;;;;;118.28;66.63;;;;;;;13.82;37.20;95429.09;5077455;28;20051;-45
2020/12/19 11:05:12;;;;;;;119.13;67.18;;;;;;;13.79;37.56;95440.13;5087879;28;20049;-44
2020/12/19 11:07:39;;;;;;;119.93;65.47;;;;;;;13.66;37.67;95433.72;5079034;28;20055;-43
2020/12/19 11:10:06;;;;;;;115.53;64.90;;;;;;;13.68;37.84;95433.44;5080866;28;20051;-44
2020/12/19 11:12:34;;;;;;;119.22;64.63;;;;;;;13.77;37.85;95424.66;5080636;28;20048;-41
2020/12/19 11:15:01;;;;;;;103.55;59.92;;;;;;;14.07;37.17;95420.91;5075501;28;20048;-44
2020/12/19 11:17:29;;;;;;;98.55;57.10;;;;;;;13.08;38.98;95414.56;5075660;28;20056;-43
2020/12/19 11:19:56;;;;;;;101.00;58.10;;;;;;;13.15;39.33;95415.00;5075583;28;20044;-44
2020/12/19 11:22:23;;;;;;;97.50;56.60;;;;;;;13.15;38.25;95421.03;5075355;28;20053;-42
2020/12/19 11:24:50;;;;;;;99.80;58.75;;;;;;;13.05;39.08;95421.13;5090406;28;20056;-42